sensor_id;sensor_type;location;lat;lon;timestamp;P1;durP1;ratioP1;P2;durP2;ratioP2
56039;SDS011;43937;41.366;2.072;2023-07-13T00:02:16;15.70;;;5.18;;
56039;SDS011;43937;41.366;2.072;2023-07-13T00:04:42;12.48;;;5.00;;
56039;SDS011;43937;41.366;2.072;2023-07-13T00:07:07;9.85;;;4.43;;
56039;SDS011;43937;41.366;2.072;2023-07-13T00:09:33;9.65;;;5.03;;
56039;SDS011;43937;41.366;2.072;2023-07-13T00:11:59;12.07;;;5.07;;
56039;SDS011;43937;41.366;2.072;2023-07-13T00:14:25;12.80;;;4.78;;
56039;SDS011;43937;41.366;2.072;2023-07-13T00:16:52;12.57;;;4.93;;
56039;SDS011;43937;41.366;2.072;2023-07-13T00:19:18;11.73;;;5.10;;
56039;SDS011;43937;41.366;2.072;2023-07-13T00:21:43;11.57;;;4.72;;
56039;SDS011;43937;41.366;2.072;2023-07-13T00:24:12;10.45;;;4.72;;
56039;SDS011;43937;41.366;2.072;2023-07-13T00:26:48;13.88;;;5.22;;
56039;SDS011;43937;41.366;2.072;2023-07-13T00:29:14;17.77;;;4.93;;
56039;SDS011;43937;41.366;2.072;2023-07-13T00:31:39;9.88;;;4.68;;
56039;SDS011;43937;41.366;2.072;2023-07-13T00:34:05;10.23;;;4.45;;
56039;SDS011;43937;41.366;2.072;2023-07-13T00:36:30;9.85;;;4.43;;
56039;SDS011;43937;41.366;2.072;2023-07-13T00:38:56;11.43;;;4.35;;
56039;SDS011;43937;41.366;2.072;2023-07-13T00:41:21;13.57;;;4.38;;
56039;SDS011;43937;41.366;2.072;2023-07-13T00:43:47;13.55;;;5.00;;
56039;SDS011;43937;41.366;2.072;2023-07-13T00:46:16;9.98;;;4.60;;
56039;SDS011;43937;41.366;2.072;2023-07-13T00:48:50;20.23;;;4.88;;
56039;SDS011;43937;41.366;2.072;2023-07-13T00:51:19;15.07;;;5.35;;
56039;SDS011;43937;41.366;2.072;2023-07-13T00:53:49;10.70;;;4.32;;
56039;SDS011;43937;41.366;2.072;2023-07-13T00:56:18;11.48;;;4.38;;
56039;SDS011;43937;41.366;2.072;2023-07-13T00:58:44;10.75;;;4.32;;
56039;SDS011;43937;41.366;2.072;2023-07-13T01:01:10;10.85;;;4.40;;
56039;SDS011;43937;41.366;2.072;2023-07-13T01:03:37;15.60;;;4.07;;
56039;SDS011;43937;41.366;2.072;2023-07-13T01:06:05;11.50;;;4.55;;
56039;SDS011;43937;41.366;2.072;2023-07-13T01:08:32;9.77;;;4.00;;
56039;SDS011;43937;41.366;2.072;2023-07-13T01:10:58;9.68;;;4.45;;
56039;SDS011;43937;41.366;2.072;2023-07-13T01:13:24;10.18;;;4.38;;
56039;SDS011;43937;41.366;2.072;2023-07-13T01:15:50;14.10;;;4.43;;
56039;SDS011;43937;41.366;2.072;2023-07-13T01:18:25;12.60;;;4.47;;
56039;SDS011;43937;41.366;2.072;2023-07-13T01:23:21;11.20;;;4.30;;
56039;SDS011;43937;41.366;2.072;2023-07-13T01:25:49;11.00;;;4.30;;
56039;SDS011;43937;41.366;2.072;2023-07-13T01:28:14;13.60;;;4.90;;
56039;SDS011;43937;41.366;2.072;2023-07-13T01:30:42;12.77;;;4.10;;
56039;SDS011;43937;41.366;2.072;2023-07-13T01:33:10;12.65;;;4.68;;
56039;SDS011;43937;41.366;2.072;2023-07-13T01:35:37;10.80;;;4.50;;
56039;SDS011;43937;41.366;2.072;2023-07-13T01:38:03;16.98;;;4.93;;
56039;SDS011;43937;41.366;2.072;2023-07-13T01:40:33;12.75;;;4.55;;
56039;SDS011;43937;41.366;2.072;2023-07-13T01:42:59;15.88;;;4.45;;
56039;SDS011;43937;41.366;2.072;2023-07-13T01:45:25;12.32;;;3.97;;
56039;SDS011;43937;41.366;2.072;2023-07-13T01:47:50;9.98;;;4.55;;
56039;SDS011;43937;41.366;2.072;2023-07-13T01:50:16;10.02;;;4.22;;
56039;SDS011;43937;41.366;2.072;2023-07-13T01:52:41;12.65;;;4.65;;
56039;SDS011;43937;41.366;2.072;2023-07-13T01:55:07;15.48;;;5.07;;
56039;SDS011;43937;41.366;2.072;2023-07-13T01:57:33;15.65;;;4.65;;
56039;SDS011;43937;41.366;2.072;2023-07-13T01:59:58;11.70;;;4.60;;
56039;SDS011;43937;41.366;2.072;2023-07-13T02:02:24;12.90;;;4.40;;
56039;SDS011;43937;41.366;2.072;2023-07-13T02:04:49;14.20;;;4.65;;
56039;SDS011;43937;41.366;2.072;2023-07-13T02:07:15;13.43;;;5.00;;
56039;SDS011;43937;41.366;2.072;2023-07-13T02:09:40;9.80;;;5.05;;
56039;SDS011;43937;41.366;2.072;2023-07-13T02:12:07;10.98;;;5.50;;
56039;SDS011;43937;41.366;2.072;2023-07-13T02:14:33;10.85;;;4.80;;
56039;SDS011;43937;41.366;2.072;2023-07-13T02:16:58;12.95;;;5.15;;
56039;SDS011;43937;41.366;2.072;2023-07-13T02:20:24;16.10;;;5.40;;
56039;SDS011;43937;41.366;2.072;2023-07-13T02:22:51;13.38;;;5.57;;
56039;SDS011;43937;41.366;2.072;2023-07-13T02:25:16;15.60;;;5.20;;
56039;SDS011;43937;41.366;2.072;2023-07-13T02:27:42;11.07;;;6.38;;
56039;SDS011;43937;41.366;2.072;2023-07-13T02:30:07;12.25;;;6.38;;
56039;SDS011;43937;41.366;2.072;2023-07-13T02:32:33;15.45;;;5.63;;
56039;SDS011;43937;41.366;2.072;2023-07-13T02:35:00;15.13;;;5.57;;
56039;SDS011;43937;41.366;2.072;2023-07-13T02:37:26;14.18;;;5.18;;
56039;SDS011;43937;41.366;2.072;2023-07-13T02:39:51;15.50;;;5.32;;
56039;SDS011;43937;41.366;2.072;2023-07-13T02:42:17;13.35;;;5.93;;
56039;SDS011;43937;41.366;2.072;2023-07-13T02:44:42;19.17;;;5.63;;
56039;SDS011;43937;41.366;2.072;2023-07-13T02:47:08;14.63;;;5.85;;
56039;SDS011;43937;41.366;2.072;2023-07-13T02:49:33;15.32;;;5.75;;
56039;SDS011;43937;41.366;2.072;2023-07-13T02:51:59;15.10;;;5.68;;
56039;SDS011;43937;41.366;2.072;2023-07-13T02:54:24;17.42;;;5.75;;
56039;SDS011;43937;41.366;2.072;2023-07-13T02:56:50;14.38;;;5.38;;
56039;SDS011;43937;41.366;2.072;2023-07-13T02:59:15;13.52;;;6.53;;
56039;SDS011;43937;41.366;2.072;2023-07-13T03:01:41;20.98;;;6.05;;
56039;SDS011;43937;41.366;2.072;2023-07-13T03:04:06;15.90;;;6.10;;
56039;SDS011;43937;41.366;2.072;2023-07-13T03:06:32;13.73;;;6.22;;
56039;SDS011;43937;41.366;2.072;2023-07-13T03:08:58;16.88;;;6.28;;
56039;SDS011;43937;41.366;2.072;2023-07-13T03:11:25;15.98;;;6.28;;
56039;SDS011;43937;41.366;2.072;2023-07-13T03:13:51;13.55;;;6.95;;
56039;SDS011;43937;41.366;2.072;2023-07-13T03:16:17;18.30;;;6.60;;
56039;SDS011;43937;41.366;2.072;2023-07-13T03:18:43;18.20;;;6.80;;
56039;SDS011;43937;41.366;2.072;2023-07-13T03:21:08;20.55;;;7.50;;
56039;SDS011;43937;41.366;2.072;2023-07-13T03:23:34;16.83;;;7.25;;
56039;SDS011;43937;41.366;2.072;2023-07-13T03:28:33;29.45;;;7.80;;
56039;SDS011;43937;41.366;2.072;2023-07-13T03:31:00;22.60;;;8.85;;
56039;SDS011;43937;41.366;2.072;2023-07-13T03:33:29;23.30;;;8.50;;
56039;SDS011;43937;41.366;2.072;2023-07-13T03:35:55;19.25;;;7.93;;
56039;SDS011;43937;41.366;2.072;2023-07-13T03:38:21;17.63;;;7.30;;
56039;SDS011;43937;41.366;2.072;2023-07-13T03:40:46;18.70;;;7.22;;
56039;SDS011;43937;41.366;2.072;2023-07-13T03:43:12;18.55;;;7.60;;
56039;SDS011;43937;41.366;2.072;2023-07-13T03:45:37;20.95;;;7.13;;
56039;SDS011;43937;41.366;2.072;2023-07-13T03:48:03;19.35;;;6.35;;
56039;SDS011;43937;41.366;2.072;2023-07-13T03:50:30;17.35;;;6.70;;
56039;SDS011;43937;41.366;2.072;2023-07-13T03:52:57;21.25;;;6.53;;
56039;SDS011;43937;41.366;2.072;2023-07-13T03:55:23;17.65;;;7.00;;
56039;SDS011;43937;41.366;2.072;2023-07-13T03:57:53;18.38;;;7.30;;
56039;SDS011;43937;41.366;2.072;2023-07-13T04:00:22;23.58;;;7.18;;
56039;SDS011;43937;41.366;2.072;2023-07-13T04:02:48;17.83;;;7.20;;
56039;SDS011;43937;41.366;2.072;2023-07-13T04:05:14;22.65;;;7.18;;
56039;SDS011;43937;41.366;2.072;2023-07-13T04:07:40;23.52;;;8.27;;
56039;SDS011;43937;41.366;2.072;2023-07-13T04:10:05;22.95;;;7.68;;
56039;SDS011;43937;41.366;2.072;2023-07-13T04:12:31;25.35;;;7.93;;
56039;SDS011;43937;41.366;2.072;2023-07-13T04:14:57;17.80;;;7.40;;
56039;SDS011;43937;41.366;2.072;2023-07-13T04:17:22;19.80;;;8.27;;
56039;SDS011;43937;41.366;2.072;2023-07-13T04:19:47;20.52;;;7.30;;
56039;SDS011;43937;41.366;2.072;2023-07-13T04:22:14;23.67;;;7.97;;
56039;SDS011;43937;41.366;2.072;2023-07-13T04:24:39;20.55;;;8.30;;
56039;SDS011;43937;41.366;2.072;2023-07-13T04:27:06;28.45;;;7.55;;
56039;SDS011;43937;41.366;2.072;2023-07-13T04:29:32;23.90;;;9.07;;
56039;SDS011;43937;41.366;2.072;2023-07-13T04:31:57;26.58;;;9.70;;
56039;SDS011;43937;41.366;2.072;2023-07-13T04:34:23;22.42;;;8.02;;
56039;SDS011;43937;41.366;2.072;2023-07-13T04:36:49;20.88;;;8.05;;
56039;SDS011;43937;41.366;2.072;2023-07-13T04:39:15;20.25;;;7.47;;
56039;SDS011;43937;41.366;2.072;2023-07-13T04:41:40;22.70;;;7.57;;
56039;SDS011;43937;41.366;2.072;2023-07-13T04:44:06;24.38;;;6.90;;
56039;SDS011;43937;41.366;2.072;2023-07-13T04:46:31;18.17;;;7.63;;
56039;SDS011;43937;41.366;2.072;2023-07-13T04:48:57;16.88;;;5.75;;
56039;SDS011;43937;41.366;2.072;2023-07-13T04:51:23;11.18;;;6.05;;
56039;SDS011;43937;41.366;2.072;2023-07-13T04:53:49;19.95;;;6.55;;
56039;SDS011;43937;41.366;2.072;2023-07-13T04:56:14;22.05;;;6.63;;
56039;SDS011;43937;41.366;2.072;2023-07-13T04:58:40;14.57;;;6.03;;
56039;SDS011;43937;41.366;2.072;2023-07-13T05:01:05;16.83;;;6.00;;
56039;SDS011;43937;41.366;2.072;2023-07-13T05:03:32;17.67;;;6.18;;
56039;SDS011;43937;41.366;2.072;2023-07-13T05:06:00;17.20;;;6.78;;
56039;SDS011;43937;41.366;2.072;2023-07-13T05:08:28;23.55;;;6.80;;
56039;SDS011;43937;41.366;2.072;2023-07-13T05:10:54;16.13;;;6.47;;
56039;SDS011;43937;41.366;2.072;2023-07-13T05:13:20;17.05;;;6.25;;
56039;SDS011;43937;41.366;2.072;2023-07-13T05:15:48;18.70;;;6.70;;
56039;SDS011;43937;41.366;2.072;2023-07-13T05:18:21;21.48;;;7.22;;
56039;SDS011;43937;41.366;2.072;2023-07-13T05:20:46;16.25;;;6.63;;
56039;SDS011;43937;41.366;2.072;2023-07-13T05:23:11;17.40;;;7.15;;
56039;SDS011;43937;41.366;2.072;2023-07-13T05:25:37;20.95;;;7.15;;
56039;SDS011;43937;41.366;2.072;2023-07-13T05:28:02;22.45;;;7.00;;
56039;SDS011;43937;41.366;2.072;2023-07-13T05:30:28;14.98;;;6.75;;
56039;SDS011;43937;41.366;2.072;2023-07-13T05:32:53;19.05;;;6.63;;
56039;SDS011;43937;41.366;2.072;2023-07-13T05:35:19;19.58;;;6.55;;
56039;SDS011;43937;41.366;2.072;2023-07-13T05:37:44;16.58;;;6.40;;
56039;SDS011;43937;41.366;2.072;2023-07-13T05:40:10;20.48;;;6.63;;
56039;SDS011;43937;41.366;2.072;2023-07-13T05:42:35;22.73;;;7.07;;
56039;SDS011;43937;41.366;2.072;2023-07-13T05:45:01;15.38;;;6.50;;
56039;SDS011;43937;41.366;2.072;2023-07-13T05:47:27;19.38;;;7.53;;
56039;SDS011;43937;41.366;2.072;2023-07-13T05:49:52;22.45;;;6.85;;
56039;SDS011;43937;41.366;2.072;2023-07-13T05:52:18;19.00;;;7.57;;
56039;SDS011;43937;41.366;2.072;2023-07-13T05:54:43;15.40;;;6.80;;
56039;SDS011;43937;41.366;2.072;2023-07-13T05:57:08;23.73;;;7.65;;
56039;SDS011;43937;41.366;2.072;2023-07-13T05:59:35;18.08;;;7.03;;
56039;SDS011;43937;41.366;2.072;2023-07-13T06:02:00;17.80;;;6.80;;
56039;SDS011;43937;41.366;2.072;2023-07-13T06:04:26;22.30;;;7.20;;
56039;SDS011;43937;41.366;2.072;2023-07-13T06:06:51;20.15;;;6.80;;
56039;SDS011;43937;41.366;2.072;2023-07-13T06:09:17;14.23;;;5.95;;
56039;SDS011;43937;41.366;2.072;2023-07-13T06:11:43;19.85;;;6.78;;
56039;SDS011;43937;41.366;2.072;2023-07-13T06:14:08;14.98;;;6.53;;
56039;SDS011;43937;41.366;2.072;2023-07-13T06:16:34;19.42;;;6.68;;
56039;SDS011;43937;41.366;2.072;2023-07-13T06:18:59;17.33;;;6.63;;
56039;SDS011;43937;41.366;2.072;2023-07-13T06:21:24;23.55;;;6.72;;
56039;SDS011;43937;41.366;2.072;2023-07-13T06:23:50;16.90;;;5.88;;
56039;SDS011;43937;41.366;2.072;2023-07-13T06:26:17;25.42;;;5.88;;
56039;SDS011;43937;41.366;2.072;2023-07-13T06:28:43;25.10;;;7.18;;
56039;SDS011;43937;41.366;2.072;2023-07-13T06:31:10;16.90;;;5.15;;
56039;SDS011;43937;41.366;2.072;2023-07-13T06:33:37;14.77;;;5.38;;
56039;SDS011;43937;41.366;2.072;2023-07-13T06:36:03;18.38;;;5.20;;
56039;SDS011;43937;41.366;2.072;2023-07-13T06:38:30;19.50;;;5.10;;
56039;SDS011;43937;41.366;2.072;2023-07-13T06:40:55;19.45;;;5.20;;
56039;SDS011;43937;41.366;2.072;2023-07-13T06:43:21;13.98;;;5.07;;
56039;SDS011;43937;41.366;2.072;2023-07-13T06:45:48;21.77;;;5.72;;
56039;SDS011;43937;41.366;2.072;2023-07-13T06:48:18;16.30;;;5.35;;
56039;SDS011;43937;41.366;2.072;2023-07-13T06:50:45;19.40;;;5.93;;
56039;SDS011;43937;41.366;2.072;2023-07-13T06:53:12;21.15;;;6.00;;
56039;SDS011;43937;41.366;2.072;2023-07-13T06:55:38;18.27;;;5.90;;
56039;SDS011;43937;41.366;2.072;2023-07-13T06:58:04;15.10;;;5.85;;
56039;SDS011;43937;41.366;2.072;2023-07-13T07:00:30;20.90;;;6.50;;
56039;SDS011;43937;41.366;2.072;2023-07-13T07:02:56;29.70;;;6.90;;
56039;SDS011;43937;41.366;2.072;2023-07-13T07:05:22;22.35;;;6.10;;
56039;SDS011;43937;41.366;2.072;2023-07-13T07:07:52;15.43;;;5.63;;
56039;SDS011;43937;41.366;2.072;2023-07-13T07:10:19;15.15;;;4.90;;
56039;SDS011;43937;41.366;2.072;2023-07-13T07:12:45;22.15;;;4.82;;
56039;SDS011;43937;41.366;2.072;2023-07-13T07:15:11;16.75;;;4.82;;
56039;SDS011;43937;41.366;2.072;2023-07-13T07:17:37;17.50;;;5.05;;
56039;SDS011;43937;41.366;2.072;2023-07-13T07:20:02;12.77;;;4.50;;
56039;SDS011;43937;41.366;2.072;2023-07-13T07:22:29;21.60;;;4.90;;
56039;SDS011;43937;41.366;2.072;2023-07-13T07:24:55;12.27;;;4.85;;
56039;SDS011;43937;41.366;2.072;2023-07-13T07:27:21;13.32;;;4.28;;
56039;SDS011;43937;41.366;2.072;2023-07-13T07:29:47;13.57;;;3.95;;
56039;SDS011;43937;41.366;2.072;2023-07-13T07:32:13;12.82;;;4.50;;
56039;SDS011;43937;41.366;2.072;2023-07-13T07:34:39;21.13;;;4.80;;
56039;SDS011;43937;41.366;2.072;2023-07-13T07:37:04;10.02;;;3.72;;
56039;SDS011;43937;41.366;2.072;2023-07-13T07:39:30;17.10;;;4.40;;
56039;SDS011;43937;41.366;2.072;2023-07-13T07:41:56;12.88;;;4.30;;
56039;SDS011;43937;41.366;2.072;2023-07-13T07:44:22;13.77;;;4.75;;
56039;SDS011;43937;41.366;2.072;2023-07-13T07:46:47;14.00;;;5.18;;
56039;SDS011;43937;41.366;2.072;2023-07-13T07:49:13;19.33;;;4.50;;
56039;SDS011;43937;41.366;2.072;2023-07-13T07:51:39;14.35;;;3.83;;
56039;SDS011;43937;41.366;2.072;2023-07-13T07:54:04;15.02;;;4.78;;
56039;SDS011;43937;41.366;2.072;2023-07-13T07:56:30;10.93;;;4.18;;
56039;SDS011;43937;41.366;2.072;2023-07-13T07:58:57;14.00;;;3.97;;
56039;SDS011;43937;41.366;2.072;2023-07-13T08:01:22;15.98;;;4.70;;
56039;SDS011;43937;41.366;2.072;2023-07-13T08:03:48;13.00;;;4.25;;
56039;SDS011;43937;41.366;2.072;2023-07-13T08:06:14;13.32;;;4.10;;
56039;SDS011;43937;41.366;2.072;2023-07-13T08:08:40;14.45;;;4.40;;
56039;SDS011;43937;41.366;2.072;2023-07-13T08:11:06;12.25;;;4.35;;
56039;SDS011;43937;41.366;2.072;2023-07-13T08:13:33;20.65;;;4.35;;
56039;SDS011;43937;41.366;2.072;2023-07-13T08:15:59;28.60;;;5.63;;
56039;SDS011;43937;41.366;2.072;2023-07-13T08:18:25;32.53;;;6.03;;
56039;SDS011;43937;41.366;2.072;2023-07-13T08:20:53;13.05;;;4.68;;
56039;SDS011;43937;41.366;2.072;2023-07-13T08:23:21;12.52;;;4.72;;
56039;SDS011;43937;41.366;2.072;2023-07-13T08:25:53;10.48;;;4.22;;
56039;SDS011;43937;41.366;2.072;2023-07-13T08:28:20;14.52;;;4.60;;
56039;SDS011;43937;41.366;2.072;2023-07-13T08:30:46;15.73;;;4.30;;
56039;SDS011;43937;41.366;2.072;2023-07-13T08:33:14;13.77;;;3.63;;
56039;SDS011;43937;41.366;2.072;2023-07-13T08:35:47;11.60;;;3.53;;
56039;SDS011;43937;41.366;2.072;2023-07-13T08:38:13;20.38;;;5.32;;
56039;SDS011;43937;41.366;2.072;2023-07-13T08:40:39;12.77;;;4.28;;
56039;SDS011;43937;41.366;2.072;2023-07-13T08:43:06;17.05;;;4.57;;
56039;SDS011;43937;41.366;2.072;2023-07-13T08:45:46;15.15;;;4.00;;
56039;SDS011;43937;41.366;2.072;2023-07-13T08:48:24;18.73;;;4.30;;
56039;SDS011;43937;41.366;2.072;2023-07-13T08:53:22;13.23;;;5.38;;
56039;SDS011;43937;41.366;2.072;2023-07-13T08:55:51;11.90;;;5.28;;
56039;SDS011;43937;41.366;2.072;2023-07-13T08:58:23;13.93;;;4.28;;
56039;SDS011;43937;41.366;2.072;2023-07-13T09:01:11;13.60;;;4.60;;
56039;SDS011;43937;41.366;2.072;2023-07-13T09:03:50;19.95;;;5.63;;
56039;SDS011;43937;41.366;2.072;2023-07-13T09:06:27;16.95;;;5.15;;
56039;SDS011;43937;41.366;2.072;2023-07-13T09:09:02;31.23;;;5.30;;
56039;SDS011;43937;41.366;2.072;2023-07-13T09:11:45;16.55;;;3.95;;
56039;SDS011;43937;41.366;2.072;2023-07-13T09:15:01;20.25;;;4.47;;
56039;SDS011;43937;41.366;2.072;2023-07-13T09:17:14;17.60;;;4.32;;
56039;SDS011;43937;41.366;2.072;2023-07-13T09:20:06;11.45;;;4.57;;
56039;SDS011;43937;41.366;2.072;2023-07-13T09:22:42;10.45;;;4.18;;
56039;SDS011;43937;41.366;2.072;2023-07-13T09:28:18;36.75;;;7.85;;
56039;SDS011;43937;41.366;2.072;2023-07-13T09:31:07;36.58;;;7.63;;
56039;SDS011;43937;41.366;2.072;2023-07-13T09:33:37;20.50;;;6.22;;
56039;SDS011;43937;41.366;2.072;2023-07-13T09:36:26;21.25;;;4.53;;
56039;SDS011;43937;41.366;2.072;2023-07-13T09:44:30;16.88;;;4.95;;
56039;SDS011;43937;41.366;2.072;2023-07-13T09:47:00;10.80;;;4.20;;
56039;SDS011;43937;41.366;2.072;2023-07-13T09:49:28;14.38;;;4.03;;
56039;SDS011;43937;41.366;2.072;2023-07-13T09:52:03;27.13;;;5.45;;
56039;SDS011;43937;41.366;2.072;2023-07-13T09:54:33;54.58;;;7.15;;
56039;SDS011;43937;41.366;2.072;2023-07-13T09:57:01;56.50;;;10.85;;
56039;SDS011;43937;41.366;2.072;2023-07-13T09:59:32;86.30;;;15.93;;
56039;SDS011;43937;41.366;2.072;2023-07-13T10:01:59;49.97;;;10.02;;
56039;SDS011;43937;41.366;2.072;2023-07-13T10:04:30;118.65;;;20.27;;
56039;SDS011;43937;41.366;2.072;2023-07-13T10:07:07;31.27;;;7.82;;
56039;SDS011;43937;41.366;2.072;2023-07-13T10:09:34;43.30;;;10.07;;
56039;SDS011;43937;41.366;2.072;2023-07-13T10:11:59;49.75;;;11.45;;
56039;SDS011;43937;41.366;2.072;2023-07-13T10:14:25;54.70;;;9.98;;
56039;SDS011;43937;41.366;2.072;2023-07-13T10:17:00;55.67;;;14.52;;
56039;SDS011;43937;41.366;2.072;2023-07-13T10:19:29;19.33;;;5.10;;
56039;SDS011;43937;41.366;2.072;2023-07-13T10:22:17;50.65;;;8.63;;
56039;SDS011;43937;41.366;2.072;2023-07-13T10:24:46;51.67;;;9.48;;
56039;SDS011;43937;41.366;2.072;2023-07-13T10:27:16;20.35;;;5.40;;
56039;SDS011;43937;41.366;2.072;2023-07-13T10:30:04;15.40;;;4.65;;
56039;SDS011;43937;41.366;2.072;2023-07-13T10:32:37;37.80;;;5.55;;
56039;SDS011;43937;41.366;2.072;2023-07-13T10:35:03;15.65;;;5.00;;
56039;SDS011;43937;41.366;2.072;2023-07-13T10:37:31;38.17;;;6.32;;
56039;SDS011;43937;41.366;2.072;2023-07-13T10:40:23;47.28;;;9.23;;
56039;SDS011;43937;41.366;2.072;2023-07-13T10:42:55;20.45;;;4.25;;
56039;SDS011;43937;41.366;2.072;2023-07-13T10:45:24;46.97;;;3.97;;
56039;SDS011;43937;41.366;2.072;2023-07-13T10:47:52;24.92;;;3.78;;
56039;SDS011;43937;41.366;2.072;2023-07-13T10:50:24;26.40;;;4.05;;
56039;SDS011;43937;41.366;2.072;2023-07-13T10:53:01;20.05;;;3.65;;
56039;SDS011;43937;41.366;2.072;2023-07-13T10:58:23;20.17;;;3.30;;
56039;SDS011;43937;41.366;2.072;2023-07-13T11:09:18;7.18;;;2.80;;
56039;SDS011;43937;41.366;2.072;2023-07-13T11:11:46;9.07;;;2.97;;
56039;SDS011;43937;41.366;2.072;2023-07-13T11:14:27;14.98;;;3.20;;
56039;SDS011;43937;41.366;2.072;2023-07-13T11:16:55;7.28;;;2.80;;
56039;SDS011;43937;41.366;2.072;2023-07-13T11:24:52;7.68;;;3.13;;
56039;SDS011;43937;41.366;2.072;2023-07-13T11:27:36;4.95;;;2.08;;
56039;SDS011;43937;41.366;2.072;2023-07-13T11:32:39;10.10;;;2.63;;
56039;SDS011;43937;41.366;2.072;2023-07-13T11:35:08;10.75;;;2.20;;
56039;SDS011;43937;41.366;2.072;2023-07-13T11:37:40;4.07;;;1.75;;
56039;SDS011;43937;41.366;2.072;2023-07-13T11:40:11;9.50;;;2.33;;
56039;SDS011;43937;41.366;2.072;2023-07-13T11:42:39;8.32;;;2.30;;
56039;SDS011;43937;41.366;2.072;2023-07-13T11:45:14;16.08;;;2.40;;
56039;SDS011;43937;41.366;2.072;2023-07-13T11:47:48;8.70;;;2.20;;
56039;SDS011;43937;41.366;2.072;2023-07-13T11:50:21;6.80;;;2.30;;
56039;SDS011;43937;41.366;2.072;2023-07-13T11:52:49;10.02;;;2.10;;
56039;SDS011;43937;41.366;2.072;2023-07-13T11:55:19;6.78;;;1.98;;
56039;SDS011;43937;41.366;2.072;2023-07-13T11:57:50;12.05;;;2.50;;
56039;SDS011;43937;41.366;2.072;2023-07-13T12:00:22;6.53;;;2.00;;
56039;SDS011;43937;41.366;2.072;2023-07-13T12:02:52;14.30;;;2.45;;
56039;SDS011;43937;41.366;2.072;2023-07-13T12:05:19;8.32;;;2.10;;
56039;SDS011;43937;41.366;2.072;2023-07-13T12:07:46;7.45;;;1.90;;
56039;SDS011;43937;41.366;2.072;2023-07-13T12:12:58;6.57;;;1.95;;
56039;SDS011;43937;41.366;2.072;2023-07-13T12:15:30;7.47;;;1.90;;
56039;SDS011;43937;41.366;2.072;2023-07-13T12:18:11;6.93;;;2.20;;
56039;SDS011;43937;41.366;2.072;2023-07-13T12:20:55;7.33;;;2.17;;
56039;SDS011;43937;41.366;2.072;2023-07-13T12:25:55;2.55;;;1.70;;
56039;SDS011;43937;41.366;2.072;2023-07-13T12:28:23;8.10;;;2.00;;
56039;SDS011;43937;41.366;2.072;2023-07-13T12:30:57;2.88;;;1.60;;
56039;SDS011;43937;41.366;2.072;2023-07-13T12:33:23;3.85;;;1.98;;
56039;SDS011;43937;41.366;2.072;2023-07-13T12:35:52;12.50;;;2.10;;
56039;SDS011;43937;41.366;2.072;2023-07-13T12:38:18;4.68;;;1.70;;
56039;SDS011;43937;41.366;2.072;2023-07-13T12:40:48;3.08;;;1.70;;
56039;SDS011;43937;41.366;2.072;2023-07-13T12:43:16;7.65;;;1.77;;
56039;SDS011;43937;41.366;2.072;2023-07-13T12:48:42;4.13;;;1.60;;
56039;SDS011;43937;41.366;2.072;2023-07-13T12:51:11;3.67;;;1.77;;
56039;SDS011;43937;41.366;2.072;2023-07-13T12:53:42;8.80;;;1.95;;
56039;SDS011;43937;41.366;2.072;2023-07-13T12:56:16;6.65;;;1.90;;
56039;SDS011;43937;41.366;2.072;2023-07-13T13:01:27;6.82;;;1.70;;
56039;SDS011;43937;41.366;2.072;2023-07-13T13:03:54;4.57;;;1.70;;
56039;SDS011;43937;41.366;2.072;2023-07-13T13:08:50;12.65;;;2.50;;
56039;SDS011;43937;41.366;2.072;2023-07-13T13:11:20;8.65;;;2.80;;
56039;SDS011;43937;41.366;2.072;2023-07-13T13:13:50;6.65;;;1.90;;
56039;SDS011;43937;41.366;2.072;2023-07-13T13:18:46;7.45;;;2.38;;
56039;SDS011;43937;41.366;2.072;2023-07-13T13:21:13;6.18;;;2.33;;
56039;SDS011;43937;41.366;2.072;2023-07-13T13:23:38;7.60;;;2.10;;
56039;SDS011;43937;41.366;2.072;2023-07-13T13:26:09;10.30;;;2.17;;
56039;SDS011;43937;41.366;2.072;2023-07-13T13:28:36;10.75;;;1.80;;
56039;SDS011;43937;41.366;2.072;2023-07-13T13:31:01;7.70;;;1.90;;
56039;SDS011;43937;41.366;2.072;2023-07-13T13:33:27;7.28;;;2.13;;
56039;SDS011;43937;41.366;2.072;2023-07-13T13:35:53;9.18;;;2.33;;
56039;SDS011;43937;41.366;2.072;2023-07-13T13:38:20;11.80;;;2.40;;
56039;SDS011;43937;41.366;2.072;2023-07-13T13:40:52;7.53;;;2.00;;
56039;SDS011;43937;41.366;2.072;2023-07-13T13:43:22;6.82;;;1.88;;
56039;SDS011;43937;41.366;2.072;2023-07-13T13:45:53;3.85;;;2.03;;
56039;SDS011;43937;41.366;2.072;2023-07-13T13:48:23;8.95;;;2.33;;
56039;SDS011;43937;41.366;2.072;2023-07-13T13:50:59;5.25;;;1.80;;
56039;SDS011;43937;41.366;2.072;2023-07-13T13:53:26;4.32;;;2.20;;
56039;SDS011;43937;41.366;2.072;2023-07-13T13:55:53;5.22;;;2.22;;
56039;SDS011;43937;41.366;2.072;2023-07-13T13:58:19;5.63;;;2.15;;
56039;SDS011;43937;41.366;2.072;2023-07-13T14:00:45;7.43;;;2.20;;
56039;SDS011;43937;41.366;2.072;2023-07-13T14:03:18;5.75;;;2.55;;
56039;SDS011;43937;41.366;2.072;2023-07-13T14:05:47;6.65;;;2.38;;
56039;SDS011;43937;41.366;2.072;2023-07-13T14:08:23;3.00;;;1.90;;
56039;SDS011;43937;41.366;2.072;2023-07-13T14:10:50;10.23;;;2.45;;
56039;SDS011;43937;41.366;2.072;2023-07-13T14:13:23;11.10;;;2.85;;
56039;SDS011;43937;41.366;2.072;2023-07-13T14:15:55;8.38;;;2.40;;
56039;SDS011;43937;41.366;2.072;2023-07-13T14:18:21;8.95;;;2.67;;
56039;SDS011;43937;41.366;2.072;2023-07-13T14:20:47;11.00;;;2.58;;
56039;SDS011;43937;41.366;2.072;2023-07-13T14:23:17;12.20;;;2.80;;
56039;SDS011;43937;41.366;2.072;2023-07-13T14:25:44;6.65;;;2.60;;
56039;SDS011;43937;41.366;2.072;2023-07-13T14:28:20;11.10;;;2.83;;
56039;SDS011;43937;41.366;2.072;2023-07-13T14:30:49;7.70;;;2.53;;
56039;SDS011;43937;41.366;2.072;2023-07-13T14:33:15;7.72;;;2.55;;
56039;SDS011;43937;41.366;2.072;2023-07-13T14:35:41;10.15;;;2.63;;
56039;SDS011;43937;41.366;2.072;2023-07-13T14:38:15;8.88;;;2.63;;
56039;SDS011;43937;41.366;2.072;2023-07-13T14:40:43;7.00;;;2.60;;
56039;SDS011;43937;41.366;2.072;2023-07-13T14:43:17;9.55;;;2.80;;
56039;SDS011;43937;41.366;2.072;2023-07-13T14:45:44;7.05;;;2.65;;
56039;SDS011;43937;41.366;2.072;2023-07-13T14:48:21;5.05;;;2.50;;
56039;SDS011;43937;41.366;2.072;2023-07-13T14:50:55;6.10;;;2.35;;
56039;SDS011;43937;41.366;2.072;2023-07-13T14:53:24;7.32;;;2.90;;
56039;SDS011;43937;41.366;2.072;2023-07-13T14:55:50;10.45;;;2.33;;
56039;SDS011;43937;41.366;2.072;2023-07-13T14:58:16;7.55;;;2.42;;
56039;SDS011;43937;41.366;2.072;2023-07-13T15:00:41;8.32;;;2.72;;
56039;SDS011;43937;41.366;2.072;2023-07-13T15:03:13;7.35;;;2.47;;
56039;SDS011;43937;41.366;2.072;2023-07-13T15:05:46;8.50;;;2.60;;
56039;SDS011;43937;41.366;2.072;2023-07-13T15:08:12;9.95;;;2.70;;
56039;SDS011;43937;41.366;2.072;2023-07-13T15:10:38;6.90;;;2.38;;
56039;SDS011;43937;41.366;2.072;2023-07-13T15:13:20;7.53;;;2.70;;
56039;SDS011;43937;41.366;2.072;2023-07-13T15:15:47;9.13;;;2.70;;
56039;SDS011;43937;41.366;2.072;2023-07-13T15:18:15;8.95;;;2.58;;
56039;SDS011;43937;41.366;2.072;2023-07-13T15:20:45;6.80;;;2.47;;
56039;SDS011;43937;41.366;2.072;2023-07-13T15:23:12;8.10;;;2.38;;
56039;SDS011;43937;41.366;2.072;2023-07-13T15:25:38;7.07;;;2.83;;
56039;SDS011;43937;41.366;2.072;2023-07-13T15:28:04;7.88;;;2.60;;
56039;SDS011;43937;41.366;2.072;2023-07-13T15:30:30;20.85;;;3.83;;
56039;SDS011;43937;41.366;2.072;2023-07-13T15:33:11;10.05;;;2.65;;
56039;SDS011;43937;41.366;2.072;2023-07-13T15:35:39;11.07;;;2.60;;
56039;SDS011;43937;41.366;2.072;2023-07-13T15:38:12;19.00;;;3.25;;